Time;durP1;ratioP1;P1;durP2;ratioP2;P2;SDS_P1;SDS_P2;PMS_P1;PMS_P2;Temp;Humidity;BMP_temperature;BMP_pressure;BME280_temperature;BME280_humidity;BME280_pressure;Samples;Min_cycle;Max_cycle;Signal;HPM_P1;HPM_P2
2021/08/09 00:00:16;;;;;;;1.98;1.40;;;16.20;79.30;;;;;;5054721;28;20021;-78
2021/08/09 00:02:41;;;;;;;4.60;1.80;;;16.10;79.20;;;;;;5054610;28;20031;-78
2021/08/09 00:05:08;;;;;;;4.65;1.70;;;16.20;79.30;;;;;;5072769;28;20035;-78
2021/08/09 00:07:33;;;;;;;5.13;1.75;;;16.10;79.20;;;;;;5054509;28;20383;-78
2021/08/09 00:09:59;;;;;;;5.93;1.70;;;16.10;79.20;;;;;;5073895;28;20017;-79
2021/08/09 00:12:25;;;;;;;5.97;1.80;;;16.10;79.20;;;;;;5058750;28;20391;-78
2021/08/09 00:14:50;;;;;;;3.13;1.60;;;16.10;79.30;;;;;;5076769;28;20025;-78
2021/08/09 00:17:16;;;;;;;2.78;1.70;;;16.10;79.20;;;;;;5058694;28;20020;-78
2021/08/09 00:19:42;;;;;;;4.40;1.70;;;16.10;79.30;;;;;;5076835;28;20450;-78
2021/08/09 00:22:07;;;;;;;4.35;1.70;;;16.10;79.30;;;;;;5055167;28;20539;-78
2021/08/09 00:24:33;;;;;;;3.65;1.48;;;16.00;79.20;;;;;;5056604;28;20052;-79
2021/08/09 00:26:59;;;;;;;4.10;1.70;;;16.10;79.30;;;;;;5056563;28;20025;-78
2021/08/09 00:29:24;;;;;;;3.17;1.65;;;16.00;79.30;;;;;;5055109;28;20420;-79
2021/08/09 00:31:50;;;;;;;2.90;1.50;;;16.00;79.30;;;;;;5056544;28;20027;-78
2021/08/09 00:34:15;;;;;;;6.20;1.95;;;16.00;79.30;;;;;;5055067;28;20133;-78
2021/08/09 00:36:41;;;;;;;4.85;1.48;;;16.00;79.30;;;;;;5054945;28;20079;-78
2021/08/09 00:39:06;;;;;;;5.45;1.60;;;16.00;79.40;;;;;;5055150;28;20091;-79
2021/08/09 00:41:32;;;;;;;7.13;1.70;;;16.00;79.40;;;;;;5055020;28;20017;-78
2021/08/09 00:43:58;;;;;;;6.35;1.90;;;16.00;79.40;;;;;;5054889;28;20017;-78
2021/08/09 00:46:23;;;;;;;3.45;1.50;;;16.00;79.40;;;;;;5054845;28;20090;-78
2021/08/09 00:48:49;;;;;;;7.32;1.83;;;16.00;79.40;;;;;;5056056;28;20021;-78
2021/08/09 00:51:15;;;;;;;3.97;1.52;;;15.90;79.40;;;;;;5054727;28;20021;-78
2021/08/09 00:53:41;;;;;;;5.65;1.42;;;15.90;79.40;;;;;;5054761;28;20032;-79
2021/08/09 00:56:07;;;;;;;4.03;1.48;;;15.90;79.40;;;;;;5056004;28;20481;-78
2021/08/09 00:58:33;;;;;;;3.90;1.65;;;15.90;79.50;;;;;;5056008;28;20029;-78
2021/08/09 01:00:59;;;;;;;3.13;1.58;;;15.90;79.40;;;;;;5054577;28;20139;-79
2021/08/09 01:03:24;;;;;;;3.10;1.55;;;15.90;79.40;;;;;;5054630;28;20021;-78
2021/08/09 01:05:51;;;;;;;4.82;1.60;;;15.90;79.50;;;;;;5055030;28;20082;-79
2021/08/09 01:08:42;;;;;;;5.30;1.98;;;15.90;79.50;;;;;;5056057;28;20027;-78
2021/08/09 01:11:07;;;;;;;4.22;1.65;;;15.90;79.50;;;;;;5054452;28;20021;-79
2021/08/09 01:13:50;;;;;;;4.75;1.63;;;15.90;79.50;;;;;;5055923;28;20112;-78
2021/08/09 01:16:17;;;;;;;4.40;1.60;;;15.80;79.50;;;;;;5055455;28;20104;-79
2021/08/09 01:18:47;;;;;;;5.18;1.63;;;15.80;79.50;;;;;;5054585;28;20633;-78
2021/08/09 01:21:17;;;;;;;4.78;1.70;;;15.80;79.50;;;;;;5053319;28;20041;-78
2021/08/09 01:24:07;;;;;;;4.82;1.67;;;15.80;79.60;;;;;;5054235;28;20427;-79
2021/08/09 01:26:39;;;;;;;5.25;1.67;;;15.80;79.60;;;;;;5054025;28;20017;-78
2021/08/09 01:29:12;;;;;;;4.13;1.50;;;15.80;79.60;;;;;;5054120;28;20021;-79
2021/08/09 01:31:47;;;;;;;5.22;1.55;;;15.70;79.70;;;;;;5054144;28;20075;-78
2021/08/09 01:34:13;;;;;;;3.67;1.60;;;15.70;79.70;;;;;;5055240;28;20033;-78
2021/08/09 01:36:47;;;;;;;3.90;1.75;;;15.70;79.70;;;;;;5055279;28;20029;-78
2021/08/09 01:39:18;;;;;;;6.13;2.28;;;15.70;79.80;;;;;;5055187;28;20111;-78
2021/08/09 01:41:44;;;;;;;5.68;1.50;;;15.70;79.80;;;;;;5053401;28;20029;-78
2021/08/09 01:44:11;;;;;;;2.22;1.42;;;15.70;79.80;;;;;;5055157;28;20067;-78
2021/08/09 01:46:37;;;;;;;4.25;1.55;;;15.70;79.80;;;;;;5053663;28;20017;-78
2021/08/09 01:49:05;;;;;;;4.07;1.95;;;15.60;79.80;;;;;;5055118;28;20380;-78
2021/08/09 01:51:32;;;;;;;7.75;1.70;;;15.70;79.90;;;;;;5054904;28;20492;-79
2021/08/09 01:53:59;;;;;;;4.82;2.00;;;15.60;79.90;;;;;;5053649;28;20429;-79
2021/08/09 01:56:25;;;;;;;3.85;1.67;;;15.60;79.90;;;;;;5053531;28;20029;-78
2021/08/09 01:58:51;;;;;;;3.60;1.90;;;15.60;80.00;;;;;;5055253;28;20060;-78
2021/08/09 02:01:18;;;;;;;4.03;1.80;;;15.60;80.10;;;;;;5053511;28;20025;-79
2021/08/09 02:03:47;;;;;;;3.15;1.73;;;15.50;80.10;;;;;;5053631;28;20029;-78
2021/08/09 02:06:14;;;;;;;3.78;1.70;;;15.50;80.10;;;;;;5053490;28;20119;-78
2021/08/09 02:08:40;;;;;;;3.55;1.65;;;15.50;80.10;;;;;;5053396;28;20020;-79
2021/08/09 02:11:22;;;;;;;2.88;1.50;;;15.50;80.10;;;;;;5053436;28;20099;-78
2021/08/09 02:14:40;;;;;;;6.72;2.03;;;15.50;80.20;;;;;;5053282;28;20033;-79
2021/08/09 02:17:22;;;;;;;3.42;1.80;;;15.50;80.20;;;;;;5053336;28;20033;-78
2021/08/09 02:20:19;;;;;;;2.97;1.65;;;15.50;80.10;;;;;;5053088;28;20025;-78
2021/08/09 02:22:51;;;;;;;4.95;1.50;;;15.50;80.10;;;;;;5044597;28;20037;-78
2021/08/09 02:25:21;;;;;;;3.42;1.60;;;15.50;80.10;;;;;;5074403;28;20464;-78
2021/08/09 02:27:54;;;;;;;4.70;1.55;;;15.50;80.10;;;;;;5074254;28;20541;-78
2021/08/09 02:30:23;;;;;;;4.55;1.45;;;15.50;80.10;;;;;;5056318;28;20468;-79
2021/08/09 02:32:52;;;;;;;5.07;1.60;;;15.50;80.10;;;;;;5074166;28;20098;-78
2021/08/09 02:35:20;;;;;;;4.28;1.58;;;15.50;80.10;;;;;;5056140;28;20369;-78
2021/08/09 02:37:47;;;;;;;4.95;1.80;;;15.50;80.10;;;;;;5056171;28;20025;-79
2021/08/09 02:40:14;;;;;;;5.90;1.85;;;15.50;80.10;;;;;;5056186;28;20221;-79
2021/08/09 02:42:40;;;;;;;3.00;1.70;;;15.50;80.10;;;;;;5056085;28;20020;-79
2021/08/09 02:45:06;;;;;;;3.35;1.65;;;15.60;80.10;;;;;;5073883;28;20123;-78
2021/08/09 02:47:33;;;;;;;4.85;1.88;;;15.60;80.00;;;;;;5073973;28;20103;-78
2021/08/09 02:50:00;;;;;;;8.60;1.77;;;15.50;80.00;;;;;;5055781;28;20024;-78
2021/08/09 02:52:27;;;;;;;4.22;1.60;;;15.60;80.10;;;;;;5055994;28;20101;-79
2021/08/09 02:54:54;;;;;;;3.40;1.70;;;15.50;80.00;;;;;;5055683;28;20115;-79
2021/08/09 02:57:23;;;;;;;3.88;1.40;;;15.50;80.00;;;;;;5055951;28;20044;-79
2021/08/09 02:59:48;;;;;;;4.60;1.63;;;15.50;80.10;;;;;;5055945;28;20062;-79
2021/08/09 03:02:16;;;;;;;5.82;1.65;;;15.50;80.10;;;;;;5056100;28;20017;-78
2021/08/09 03:04:43;;;;;;;4.18;1.77;;;15.50;80.10;;;;;;5055918;28;20031;-79
2021/08/09 03:07:10;;;;;;;6.47;1.70;;;15.50;80.10;;;;;;5055635;28;20046;-79
2021/08/09 03:09:37;;;;;;;6.30;1.80;;;15.50;80.80;;;;;;5055687;28;20021;-79
2021/08/09 03:12:05;;;;;;;5.57;1.70;;;15.50;80.20;;;;;;5055655;28;20074;-78
2021/08/09 03:14:31;;;;;;;4.25;1.73;;;15.50;80.20;;;;;;5055644;28;20020;-78
2021/08/09 03:17:00;;;;;;;6.25;1.90;;;15.40;80.20;;;;;;5055368;28;20434;-78
2021/08/09 03:19:25;;;;;;;4.38;1.63;;;15.40;80.20;;;;;;5055456;28;20074;-79
2021/08/09 03:21:53;;;;;;;6.97;1.67;;;15.40;80.20;;;;;;5051951;28;20496;-79
2021/08/09 03:24:20;;;;;;;4.53;1.80;;;15.40;80.30;;;;;;5052013;28;20028;-79
2021/08/09 03:26:46;;;;;;;5.68;1.75;;;15.40;80.30;;;;;;5051879;28;20048;-78
2021/08/09 03:29:12;;;;;;;4.05;1.58;;;15.40;80.20;;;;;;5051949;28;20029;-78
2021/08/09 03:31:37;;;;;;;5.13;1.73;;;15.40;80.20;;;;;;5051772;28;20029;-78
2021/08/09 03:34:03;;;;;;;5.20;1.67;;;15.40;80.20;;;;;;5051835;28;20021;-78
2021/08/09 03:36:29;;;;;;;5.55;1.90;;;15.40;80.20;;;;;;5051720;28;20511;-79
2021/08/09 03:38:54;;;;;;;4.72;1.70;;;15.40;80.10;;;;;;5053029;28;20032;-78
2021/08/09 03:41:20;;;;;;;5.13;1.55;;;15.50;80.20;;;;;;5052099;28;20029;-79
2021/08/09 03:43:45;;;;;;;4.97;1.70;;;15.50;80.10;;;;;;5051712;28;20060;-79
2021/08/09 03:46:11;;;;;;;3.78;1.83;;;15.40;80.10;;;;;;5051125;28;20029;-78
2021/08/09 03:48:36;;;;;;;5.40;2.10;;;15.40;80.10;;;;;;5051683;28;20024;-78
2021/08/09 03:51:02;;;;;;;4.63;1.70;;;15.50;80.20;;;;;;5051818;28;20519;-78
2021/08/09 03:53:28;;;;;;;4.65;1.80;;;15.40;80.10;;;;;;5052024;28;20021;-78
2021/08/09 03:55:53;;;;;;;4.40;1.60;;;15.40;80.10;;;;;;5051550;28;20028;-78
2021/08/09 03:58:19;;;;;;;5.22;1.70;;;15.40;80.10;;;;;;5053014;28;20570;-78
2021/08/09 04:00:45;;;;;;;6.10;1.60;;;15.40;80.10;;;;;;5051525;28;20036;-79
2021/08/09 04:03:11;;;;;;;6.45;1.95;;;15.50;80.10;;;;;;5052784;28;20052;-77
2021/08/09 04:05:37;;;;;;;5.97;1.60;;;15.40;80.10;;;;;;5052749;28;20083;-79
2021/08/09 04:08:02;;;;;;;5.10;1.80;;;15.40;80.10;;;;;;5051778;28;20381;-78
2021/08/09 04:10:28;;;;;;;3.97;1.65;;;15.40;80.10;;;;;;5051688;28;20025;-78
2021/08/09 04:12:54;;;;;;;4.80;1.60;;;15.40;80.10;;;;;;5051433;28;20480;-78
2021/08/09 04:15:19;;;;;;;4.82;1.55;;;15.40;80.10;;;;;;5051179;28;20021;-78
2021/08/09 04:17:45;;;;;;;5.03;1.35;;;15.40;80.10;;;;;;5052602;28;20063;-77
2021/08/09 04:20:11;;;;;;;8.32;1.80;;;15.40;80.10;;;;;;5054843;28;20103;-77
2021/08/09 04:22:37;;;;;;;6.32;1.80;;;15.40;80.10;;;;;;5054584;28;20028;-77
2021/08/09 04:25:03;;;;;;;4.18;1.23;;;15.40;80.10;;;;;;5054578;28;20040;-77
2021/08/09 04:27:29;;;;;;;5.88;1.63;;;15.40;80.20;;;;;;5054580;28;20020;-78
2021/08/09 04:29:55;;;;;;;3.80;1.70;;;15.40;80.20;;;;;;5054553;28;20059;-77
2021/08/09 04:32:20;;;;;;;5.97;2.28;;;15.40;80.20;;;;;;5054559;28;20017;-79
2021/08/09 04:34:46;;;;;;;6.18;1.65;;;15.40;80.30;;;;;;5054487;28;20387;-79
2021/08/09 04:37:12;;;;;;;5.38;1.85;;;15.40;80.30;;;;;;5054567;28;20017;-78
2021/08/09 04:39:39;;;;;;;5.43;1.60;;;15.30;80.20;;;;;;5054475;28;20025;-78
2021/08/09 04:42:05;;;;;;;4.82;1.70;;;15.40;80.30;;;;;;5051598;28;20027;-78
2021/08/09 04:44:31;;;;;;;3.05;1.48;;;15.40;80.30;;;;;;5054563;28;20025;-78
2021/08/09 04:46:57;;;;;;;3.10;1.42;;;15.40;80.30;;;;;;5054476;28;20020;-79
2021/08/09 04:49:24;;;;;;;5.28;1.75;;;15.50;80.30;;;;;;5054291;28;20031;-78
2021/08/09 04:51:50;;;;;;;4.55;1.40;;;15.50;80.30;;;;;;5070880;28;20017;-78
2021/08/09 04:54:16;;;;;;;4.25;1.52;;;15.40;80.20;;;;;;5072377;28;20425;-78
2021/08/09 04:56:41;;;;;;;5.15;1.30;;;15.50;80.20;;;;;;5055040;28;20169;-78
2021/08/09 04:59:07;;;;;;;5.53;1.50;;;15.50;80.10;;;;;;5058027;28;20083;-78
2021/08/09 05:01:32;;;;;;;4.82;1.60;;;15.60;80.10;;;;;;5058041;28;20159;-78
2021/08/09 05:03:58;;;;;;;4.60;1.38;;;15.60;80.00;;;;;;5058029;28;20020;-78
2021/08/09 05:06:24;;;;;;;4.38;1.50;;;15.70;79.90;;;;;;5057785;28;20032;-78
2021/08/09 05:08:50;;;;;;;4.07;1.50;;;15.80;79.80;;;;;;5058085;28;20383;-79
2021/08/09 05:11:15;;;;;;;5.85;1.55;;;15.80;79.70;;;;;;5058002;28;20024;-78
2021/08/09 05:13:41;;;;;;;3.65;1.48;;;15.90;79.60;;;;;;5057812;28;20442;-78
2021/08/09 05:16:07;;;;;;;4.55;1.70;;;15.90;79.50;;;;;;5057712;28;20549;-79
2021/08/09 05:18:32;;;;;;;6.10;1.60;;;16.00;79.50;;;;;;5057652;28;20024;-78
2021/08/09 05:20:58;;;;;;;2.60;1.20;;;16.00;79.50;;;;;;5054478;28;20045;-77
2021/08/09 05:23:24;;;;;;;3.38;1.65;;;16.00;79.40;;;;;;5054269;28;20076;-79
2021/08/09 05:25:50;;;;;;;3.17;1.40;;;16.00;79.40;;;;;;5054336;28;20083;-78
2021/08/09 05:28:16;;;;;;;6.07;1.80;;;16.00;79.40;;;;;;5055689;28;20091;-78
2021/08/09 05:30:43;;;;;;;2.67;1.35;;;16.10;79.40;;;;;;5054277;28;20036;-78
2021/08/09 05:33:10;;;;;;;2.97;1.70;;;16.10;79.40;;;;;;5055666;28;20020;-79
2021/08/09 05:35:37;;;;;;;4.22;1.95;;;16.10;79.40;;;;;;5054408;28;20469;-80
2021/08/09 05:38:03;;;;;;;5.05;1.60;;;16.10;79.40;;;;;;5054035;28;20164;-77
2021/08/09 05:40:28;;;;;;;5.25;1.92;;;16.20;79.40;;;;;;5055375;28;20055;-78
2021/08/09 05:42:54;;;;;;;4.13;1.60;;;16.20;79.40;;;;;;5058071;28;20060;-78
2021/08/09 05:45:20;;;;;;;4.65;1.65;;;16.20;79.30;;;;;;5053948;28;20526;-78
2021/08/09 05:47:47;;;;;;;4.85;1.48;;;16.30;79.20;;;;;;5053894;28;20099;-79
2021/08/09 05:50:13;;;;;;;4.72;1.55;;;16.30;79.00;;;;;;5055235;28;20025;-78
2021/08/09 05:52:40;;;;;;;4.57;1.67;;;16.40;79.00;;;;;;5053899;28;20052;-79
2021/08/09 05:55:07;;;;;;;4.43;1.52;;;16.40;78.90;;;;;;5054293;28;20021;-79
2021/08/09 05:57:32;;;;;;;2.78;1.40;;;16.50;78.90;;;;;;5053871;28;20021;-78
2021/08/09 05:59:58;;;;;;;6.18;1.90;;;16.50;78.80;;;;;;5053790;28;20024;-79
2021/08/09 06:02:24;;;;;;;4.80;1.60;;;16.50;78.90;;;;;;5053888;28;20082;-78
2021/08/09 06:04:50;;;;;;;4.57;1.83;;;16.50;78.80;;;;;;5053658;28;20021;-78
2021/08/09 06:07:17;;;;;;;4.57;1.80;;;16.50;78.80;;;;;;5053313;28;20112;-78
2021/08/09 06:09:44;;;;;;;4.40;1.73;;;16.50;78.80;;;;;;5053555;28;20092;-78
2021/08/09 06:12:11;;;;;;;3.08;1.50;;;16.50;78.90;;;;;;5053751;28;20029;-78
2021/08/09 06:14:37;;;;;;;5.07;1.95;;;16.50;78.90;;;;;;5053248;28;20465;-78
2021/08/09 06:17:04;;;;;;;3.60;1.73;;;16.50;78.80;;;;;;5053583;28;20021;-78
2021/08/09 06:19:30;;;;;;;6.32;1.60;;;16.40;78.80;;;;;;5053348;28;20070;-78
2021/08/09 06:21:56;;;;;;;2.78;1.63;;;16.40;78.90;;;;;;5070220;28;20036;-78
2021/08/09 06:24:22;;;;;;;4.80;1.40;;;16.40;78.90;;;;;;5057031;28;20035;-79
2021/08/09 06:26:49;;;;;;;4.82;1.65;;;16.40;79.00;;;;;;5057144;28;20024;-78
2021/08/09 06:29:16;;;;;;;5.70;1.55;;;16.40;79.10;;;;;;5056607;28;20035;-79
2021/08/09 06:31:42;;;;;;;3.25;1.60;;;16.30;79.10;;;;;;5056694;28;20029;-78
2021/08/09 06:34:07;;;;;;;5.47;1.58;;;16.40;79.10;;;;;;5057162;28;20027;-78
2021/08/09 06:36:33;;;;;;;3.38;1.70;;;16.40;79.20;;;;;;5056781;28;20472;-79
2021/08/09 06:38:58;;;;;;;5.15;1.80;;;16.40;79.10;;;;;;5057062;28;20025;-78
2021/08/09 06:44:46;;;;;;;4.85;1.95;;;16.50;79.20;;;;;;5074768;28;20036;-79
2021/08/09 06:47:12;;;;;;;5.55;1.80;;;16.50;79.10;;;;;;5057001;28;20017;-78
2021/08/09 06:49:37;;;;;;;3.55;1.90;;;16.50;79.00;;;;;;5056860;28;20056;-78
2021/08/09 06:52:04;;;;;;;5.18;1.95;;;16.50;79.00;;;;;;5056230;28;20020;-78
2021/08/09 06:54:30;;;;;;;5.85;2.00;;;16.60;79.00;;;;;;5056578;28;20028;-78
2021/08/09 06:56:56;;;;;;;6.28;1.80;;;16.60;79.00;;;;;;5056353;28;20111;-78
2021/08/09 06:59:22;;;;;;;4.07;1.63;;;16.60;79.50;;;;;;5056456;28;20060;-79
2021/08/09 07:01:47;;;;;;;4.15;1.70;;;16.70;78.90;;;;;;5055778;28;20029;-78
2021/08/09 07:04:13;;;;;;;3.92;1.95;;;16.80;78.90;;;;;;5073759;28;20369;-78
2021/08/09 07:06:39;;;;;;;5.90;2.63;;;16.80;78.80;;;;;;5056287;28;20029;-78
2021/08/09 07:09:05;;;;;;;5.70;2.20;;;16.80;78.70;;;;;;5055750;28;20108;-78
2021/08/09 07:11:30;;;;;;;5.80;2.13;;;16.90;78.70;;;;;;5055686;28;20048;-78
2021/08/09 07:13:56;;;;;;;3.45;1.80;;;16.90;78.70;;;;;;5055547;28;20021;-78
2021/08/09 07:16:25;;;;;;;5.15;1.60;;;16.90;78.60;;;;;;5055606;28;20544;-78
2021/08/09 07:18:52;;;;;;;4.93;1.85;;;17.00;78.60;;;;;;5055333;28;20071;-79
2021/08/09 07:21:18;;;;;;;4.00;1.50;;;17.00;78.50;;;;;;5073005;28;20040;-78
2021/08/09 07:27:05;;;;;;;5.82;1.60;;;17.20;78.40;;;;;;5074618;28;20467;-79
2021/08/09 07:29:31;;;;;;;3.20;1.45;;;17.20;78.20;;;;;;5056442;28;20017;-77
2021/08/09 07:32:00;;;;;;;5.32;1.60;;;17.30;78.10;;;;;;5056888;28;20020;-77
2021/08/09 07:34:26;;;;;;;5.63;1.67;;;17.30;78.00;;;;;;5074276;28;20024;-77
2021/08/09 07:36:54;;;;;;;4.38;1.60;;;17.40;78.00;;;;;;5056403;28;20066;-77
2021/08/09 07:39:20;;;;;;;3.35;1.65;;;17.40;77.80;;;;;;5059224;28;20016;-78
2021/08/09 07:41:45;;;;;;;2.53;1.50;;;17.50;77.60;;;;;;5055123;28;20047;-77
2021/08/09 07:44:11;;;;;;;3.47;1.70;;;17.50;77.60;;;;;;5073186;28;20016;-77
2021/08/09 07:46:36;;;;;;;4.68;1.63;;;17.60;77.60;;;;;;5073133;28;20039;-79
2021/08/09 07:49:02;;;;;;;3.08;1.70;;;17.60;77.40;;;;;;5072951;28;20024;-78
2021/08/09 07:51:28;;;;;;;5.18;1.50;;;17.70;77.30;;;;;;5055041;28;20105;-80
2021/08/09 07:53:53;;;;;;;5.38;1.73;;;17.70;77.20;;;;;;5072820;28;20034;-80
2021/08/09 07:56:19;;;;;;;5.00;1.95;;;17.80;77.10;;;;;;5055272;28;20439;-80
2021/08/09 07:58:44;;;;;;;3.40;1.40;;;17.80;77.10;;;;;;5055354;28;20021;-79
2021/08/09 08:01:10;;;;;;;2.90;1.30;;;17.80;76.90;;;;;;5072606;28;20020;-81
2021/08/09 08:03:36;;;;;;;3.45;1.63;;;17.80;76.70;;;;;;5056749;28;20048;-82
2021/08/09 08:06:01;;;;;;;2.78;1.30;;;17.90;76.60;;;;;;5056277;28;20025;-80
2021/08/09 08:08:27;;;;;;;2.83;1.70;;;17.90;76.50;;;;;;5055533;28;20036;-82
2021/08/09 08:10:53;;;;;;;4.18;1.63;;;17.90;76.30;;;;;;5055711;28;20388;-80
2021/08/09 08:13:18;;;;;;;3.42;1.60;;;18.00;76.20;;;;;;5054822;28;20033;-79
2021/08/09 08:15:44;;;;;;;4.43;1.65;;;18.00;76.00;;;;;;5055045;28;20016;-80
2021/08/09 08:18:10;;;;;;;3.22;1.50;;;18.10;75.90;;;;;;5076676;28;20108;-80
2021/08/09 08:20:35;;;;;;;4.00;1.60;;;18.10;75.80;;;;;;5089105;28;20127;-79
2021/08/09 08:23:04;;;;;;;2.33;1.30;;;18.20;75.50;;;;;;5087294;28;20039;-80
2021/08/09 08:25:30;;;;;;;5.70;1.33;;;18.30;75.30;;;;;;5068998;28;20091;-79
2021/08/09 08:27:55;;;;;;;2.08;1.20;;;18.30;75.10;;;;;;5082712;28;20033;-80
2021/08/09 08:30:21;;;;;;;4.38;1.27;;;18.30;75.10;;;;;;5072188;28;20025;-79
2021/08/09 08:32:47;;;;;;;4.00;1.33;;;18.30;75.00;;;;;;5077532;28;20039;-78
2021/08/09 08:35:12;;;;;;;3.22;1.70;;;18.40;75.00;;;;;;5078130;28;20080;-78
2021/08/09 08:37:38;;;;;;;6.10;1.60;;;18.50;74.70;;;;;;5075711;28;20073;-78
2021/08/09 08:40:05;;;;;;;3.08;1.30;;;18.70;74.50;;;;;;5077088;28;20024;-77
2021/08/09 08:42:31;;;;;;;3.55;1.67;;;18.80;74.20;;;;;;5094677;28;20021;-77
2021/08/09 08:44:56;;;;;;;4.28;1.40;;;18.90;73.90;;;;;;5095016;28;20027;-77
2021/08/09 08:47:23;;;;;;;2.15;1.67;;;19.00;73.60;;;;;;5074466;28;20024;-77
2021/08/09 08:49:49;;;;;;;3.60;1.30;;;19.00;73.30;;;;;;5092959;28;20403;-77
2021/08/09 08:52:15;;;;;;;2.35;1.08;;;19.00;73.20;;;;;;5076427;28;20020;-77
2021/08/09 08:54:41;;;;;;;2.10;1.25;;;19.00;73.20;;;;;;5094785;28;20028;-77
2021/08/09 08:57:17;;;;;;;3.20;1.48;;;19.10;73.10;;;;;;5094894;28;20036;-76
2021/08/09 08:59:43;;;;;;;3.28;1.38;;;19.20;72.80;;;;;;5096307;28;20119;-77
2021/08/09 09:02:09;;;;;;;1.85;1.30;;;19.30;72.70;;;;;;5078954;28;20043;-77
2021/08/09 09:04:36;;;;;;;2.65;1.30;;;19.40;72.50;;;;;;5094100;28;20028;-78
2021/08/09 09:07:06;;;;;;;1.52;1.10;;;19.40;72.20;;;;;;5087117;28;20050;-76
2021/08/09 09:09:37;;;;;;;1.50;1.20;;;19.60;71.90;;;;;;5090963;28;20024;-78
2021/08/09 09:12:32;;;;;;;2.70;1.30;;;19.60;71.40;;;;;;5067244;28;20128;-77
2021/08/09 09:15:04;;;;;;;2.15;1.00;;;19.80;70.80;;;;;;5071571;28;20056;-78
2021/08/09 09:17:38;;;;;;;2.22;1.13;;;19.90;70.40;;;;;;5091574;28;20024;-78
2021/08/09 09:23:32;;;;;;;2.47;1.25;;;20.20;69.60;;;;;;5090933;28;20047;-78
2021/08/09 09:25:57;;;;;;;3.08;1.10;;;20.30;69.20;;;;;;5053676;28;20033;-78
2021/08/09 09:28:29;;;;;;;2.05;1.10;;;20.40;69.00;;;;;;5068749;28;20041;-80
2021/08/09 09:31:02;;;;;;;1.45;1.00;;;20.50;68.50;;;;;;5038204;28;20025;-79
2021/08/09 09:33:30;;;;;;;3.50;1.50;;;20.60;68.30;;;;;;5037615;28;20025;-80
2021/08/09 09:35:55;;;;;;;3.17;1.20;;;20.70;68.00;;;;;;5041823;28;20028;-79
2021/08/09 09:41:51;;;;;;;3.42;1.25;;;20.80;67.70;;;;;;5061822;28;20058;-79
2021/08/09 09:44:25;;;;;;;5.28;1.30;;;20.80;67.80;;;;;;5042112;28;20111;-79
2021/08/09 09:46:50;;;;;;;3.30;1.20;;;20.90;67.40;;;;;;5040969;28;20044;-80
2021/08/09 09:49:33;;;;;;;1.00;0.90;;;21.00;67.20;;;;;;5058297;28;20033;-79
2021/08/09 09:52:00;;;;;;;3.00;1.30;;;21.00;66.90;;;;;;5061010;28;20039;-79
2021/08/09 09:54:26;;;;;;;2.95;1.00;;;21.10;66.80;;;;;;5046887;28;20029;-80
2021/08/09 09:56:53;;;;;;;3.03;1.27;;;21.10;66.60;;;;;;5045106;28;20036;-79
2021/08/09 09:59:19;;;;;;;3.15;1.10;;;21.20;66.40;;;;;;5044791;28;20086;-79
2021/08/09 10:01:45;;;;;;;1.83;0.90;;;21.20;66.10;;;;;;5043072;28;20029;-80
2021/08/09 10:04:14;;;;;;;3.53;1.20;;;21.20;66.10;;;;;;5058627;28;20028;-82
2021/08/09 10:06:40;;;;;;;4.30;1.63;;;21.30;65.90;;;;;;5038576;28;20037;-80
2021/08/09 10:09:08;;;;;;;3.13;1.30;;;21.30;65.80;;;;;;5054339;28;20417;-79
2021/08/09 10:11:37;;;;;;;3.05;1.20;;;21.30;65.70;;;;;;5071663;28;20033;-79
2021/08/09 10:14:03;;;;;;;1.73;1.10;;;21.30;65.80;;;;;;5056648;28;20036;-79
2021/08/09 10:16:33;;;;;;;2.30;1.48;;;21.30;66.00;;;;;;5054317;28;20445;-78
2021/08/09 10:19:00;;;;;;;2.58;1.38;;;21.30;66.00;;;;;;5050570;28;20028;-78
2021/08/09 10:21:33;;;;;;;3.83;1.30;;;21.40;66.00;;;;;;5067053;28;20106;-78
2021/08/09 10:23:59;;;;;;;;;;;21.40;65.70;;;;;;5038018;28;20036;-79
2021/08/09 10:26:30;;;;;;;5.38;1.40;;;21.50;65.60;;;;;;5058756;28;19999;-78
2021/08/09 10:28:59;;;;;;;3.47;1.20;;;21.50;65.50;;;;;;5055896;28;20029;-78
2021/08/09 10:31:30;;;;;;;2.40;1.30;;;21.60;65.50;;;;;;5048797;28;20109;-79
2021/08/09 10:33:59;;;;;;;3.55;1.60;;;21.70;65.20;;;;;;5041005;28;20056;-79
2021/08/09 10:36:25;;;;;;;1.38;1.08;;;21.80;64.90;;;;;;5038043;28;20059;-79
2021/08/09 10:38:53;;;;;;;2.20;1.00;;;21.80;64.80;;;;;;5054083;28;20029;-79
2021/08/09 10:41:31;;;;;;;2.70;1.02;;;21.80;64.70;;;;;;5036580;28;20021;-78
2021/08/09 10:44:06;;;;;;;2.88;1.17;;;21.80;64.40;;;;;;5036409;28;20028;-80
2021/08/09 10:46:42;;;;;;;1.20;0.85;;;21.80;64.30;;;;;;5054252;28;20087;-78
2021/08/09 10:49:10;;;;;;;2.85;1.10;;;21.90;64.10;;;;;;5036282;28;20142;-77
2021/08/09 10:51:51;;;;;;;2.50;1.13;;;21.90;63.90;;;;;;5036253;28;20476;-77
2021/08/09 10:54:31;;;;;;;5.53;1.10;;;22.00;63.70;;;;;;5035055;28;20056;-78
2021/08/09 10:56:57;;;;;;;2.28;1.10;;;22.10;63.70;;;;;;5035815;28;20029;-77
2021/08/09 10:59:45;;;;;;;3.25;1.13;;;22.10;63.60;;;;;;5053902;28;20476;-78
2021/08/09 11:02:15;;;;;;;2.95;0.98;;;22.10;63.10;;;;;;5054492;28;20025;-80
2021/08/09 11:04:40;;;;;;;2.50;1.30;;;22.10;63.10;;;;;;5035734;28;20029;-80
2021/08/09 11:07:18;;;;;;;2.70;1.10;;;22.10;62.80;;;;;;5035933;28;20377;-81
2021/08/09 11:09:47;;;;;;;2.95;1.05;;;22.00;62.40;;;;;;5035647;28;20065;-80
2021/08/09 11:12:26;;;;;;;4.55;1.08;;;21.90;62.20;;;;;;5053816;28;20048;-81
2021/08/09 11:15:06;;;;;;;2.08;0.98;;;21.90;62.00;;;;;;5035904;28;20056;-79
2021/08/09 11:17:37;;;;;;;3.95;1.20;;;21.90;62.10;;;;;;5035603;28;20033;-79
2021/08/09 11:20:12;;;;;;;3.03;1.05;;;21.90;62.70;;;;;;5035632;28;20460;-79
2021/08/09 11:22:39;;;;;;;2.75;1.08;;;21.90;62.00;;;;;;5035671;28;20036;-79
2021/08/09 11:25:31;;;;;;;2.28;1.10;;;21.80;62.40;;;;;;5047894;28;20495;-80
2021/08/09 11:28:00;;;;;;;1.58;0.85;;;21.60;63.30;;;;;;5055329;28;20036;-79
2021/08/09 11:30:39;;;;;;;2.33;1.08;;;21.40;64.10;;;;;;5055243;28;20052;-80
2021/08/09 11:33:05;;;;;;;2.10;1.10;;;21.20;64.90;;;;;;5055315;28;20020;-79
2021/08/09 11:35:41;;;;;;;1.25;0.90;;;21.10;65.20;;;;;;5052458;28;20039;-80
2021/08/09 11:38:09;;;;;;;3.13;1.20;;;21.00;65.60;;;;;;5055363;28;20016;-79
2021/08/09 11:40:41;;;;;;;1.95;1.10;;;20.80;66.10;;;;;;5055199;28;20025;-80
2021/08/09 11:43:08;;;;;;;2.40;1.00;;;20.70;66.50;;;;;;5055109;28;20432;-80
2021/08/09 11:45:35;;;;;;;2.78;1.00;;;20.50;66.90;;;;;;5054983;28;20078;-81
2021/08/09 11:48:00;;;;;;;1.77;1.00;;;20.40;67.20;;;;;;5054982;28;20050;-79
2021/08/09 11:50:32;;;;;;;2.15;1.10;;;20.50;67.40;;;;;;5069994;28;20036;-80
2021/08/09 11:52:59;;;;;;;2.47;1.20;;;20.60;67.30;;;;;;5054950;28;20365;-80
2021/08/09 11:55:25;;;;;;;2.50;1.23;;;20.70;67.10;;;;;;5072885;28;20032;-79
2021/08/09 11:57:50;;;;;;;2.65;0.80;;;20.80;66.80;;;;;;5055049;28;20222;-79
2021/08/09 12:00:16;;;;;;;2.55;1.08;;;21.00;67.20;;;;;;5054771;28;20071;-79
2021/08/09 12:03:08;;;;;;;2.58;1.20;;;21.10;66.40;;;;;;5054733;28;20492;-79
2021/08/09 12:05:34;;;;;;;2.90;1.10;;;21.20;66.00;;;;;;5054370;28;20081;-79
2021/08/09 12:08:04;;;;;;;1.73;0.88;;;21.40;65.50;;;;;;5037967;28;20036;-80
2021/08/09 12:10:30;;;;;;;3.25;1.20;;;21.40;65.30;;;;;;5054746;28;20020;-79
2021/08/09 12:12:56;;;;;;;1.23;1.00;;;21.50;65.20;;;;;;5054721;28;20085;-80
2021/08/09 12:15:23;;;;;;;1.30;0.88;;;21.50;65.10;;;;;;5054603;28;20024;-80
2021/08/09 12:18:06;;;;;;;1.45;0.90;;;21.60;65.10;;;;;;5054506;28;20404;-79
2021/08/09 12:20:33;;;;;;;1.92;1.00;;;21.70;64.70;;;;;;5054658;28;20028;-79
2021/08/09 12:22:59;;;;;;;3.08;0.93;;;21.80;64.60;;;;;;5072470;28;20074;-79
2021/08/09 12:25:36;;;;;;;3.65;1.27;;;21.80;64.30;;;;;;5072450;28;20524;-79
2021/08/09 12:28:06;;;;;;;2.00;1.00;;;22.00;64.00;;;;;;5051825;28;20084;-79
2021/08/09 12:30:51;;;;;;;1.67;0.93;;;22.00;63.70;;;;;;5054532;28;20025;-79
2021/08/09 12:33:18;;;;;;;1.27;0.75;;;22.20;62.80;;;;;;5071257;28;20029;-79
2021/08/09 12:35:44;;;;;;;1.38;0.77;;;22.30;63.30;;;;;;5072401;28;20043;-79
2021/08/09 12:38:12;;;;;;;2.13;0.90;;;22.40;62.40;;;;;;5072446;28;20028;-79
2021/08/09 12:40:45;;;;;;;1.65;1.00;;;22.50;62.00;;;;;;5072396;28;20036;-78
2021/08/09 12:43:13;;;;;;;1.75;0.80;;;22.50;61.60;;;;;;5054376;28;20028;-81
2021/08/09 12:45:40;;;;;;;1.85;0.80;;;22.50;61.40;;;;;;5072818;28;20095;-79
2021/08/09 12:48:07;;;;;;;1.60;0.85;;;22.50;61.60;;;;;;5072350;28;20097;-78
2021/08/09 12:50:34;;;;;;;1.10;0.70;;;22.60;61.60;;;;;;5054470;28;20036;-79
2021/08/09 12:53:00;;;;;;;1.58;0.88;;;22.70;61.50;;;;;;5054273;28;20107;-80
2021/08/09 12:55:26;;;;;;;2.88;0.80;;;22.80;61.40;;;;;;5054415;28;20462;-79
2021/08/09 12:57:52;;;;;;;2.08;0.75;;;22.90;61.20;;;;;;5070988;28;20056;-80
2021/08/09 13:00:20;;;;;;;1.52;0.90;;;23.00;61.00;;;;;;5072208;28;20042;-79
2021/08/09 13:02:46;;;;;;;2.47;0.88;;;23.00;60.60;;;;;;5070901;28;20530;-79
2021/08/09 13:05:11;;;;;;;1.33;0.85;;;23.10;60.30;;;;;;5054554;28;20028;-79